Time;durP1;ratioP1;P1;durP2;ratioP2;P2;SDS_P1;SDS_P2;PMS_P1;PMS_P2;Temp;Humidity;BMP_temperature;BMP_pressure;BME280_temperature;BME280_humidity;BME280_pressure;Samples;Min_cycle;Max_cycle;Signal;HPM_P1;HPM_P2
2020/12/06 00:00:36;;;;;;;26.73;16.53;;;4.00;84.50;;;4.26;71.06;95846.41;5061825;28;20057;-48
2020/12/06 00:03:03;;;;;;;24.43;14.30;;;4.00;84.60;;;4.26;70.79;95855.13;5062101;28;20059;-47
2020/12/06 00:05:31;;;;;;;25.27;15.23;;;4.00;84.60;;;4.26;71.13;95855.13;5061428;28;20067;-46
2020/12/06 00:07:58;;;;;;;25.90;15.77;;;4.00;84.70;;;4.26;70.82;95859.56;5061865;28;20048;-48
2020/12/06 00:10:26;;;;;;;27.23;16.17;;;4.00;84.50;;;4.27;71.29;95858.59;5061835;28;20049;-48
2020/12/06 00:12:53;;;;;;;28.20;16.83;;;4.00;84.60;;;4.26;70.77;95860.41;5061829;28;20053;-47
2020/12/06 00:15:20;;;;;;;30.37;17.13;;;4.00;84.50;;;4.29;71.20;95859.25;5061156;28;20049;-47
2020/12/06 00:17:47;;;;;;;30.33;15.33;;;3.90;84.50;;;4.28;71.22;95858.41;5061403;28;20057;-50
2020/12/06 00:20:15;;;;;;;28.57;15.93;;;3.90;84.50;;;4.27;70.71;95855.97;5061616;28;20052;-50
2020/12/06 00:22:45;;;;;;;29.50;18.07;;;3.90;84.50;;;4.25;71.03;95848.22;5061872;28;20048;-48
2020/12/06 00:25:13;;;;;;;31.70;17.20;;;3.90;84.70;;;4.23;71.20;95844.94;5061269;28;20051;-49
2020/12/06 00:27:40;;;;;;;32.93;15.47;;;3.80;84.60;;;4.22;70.75;95855.63;5061567;28;20053;-48
2020/12/06 00:30:09;;;;;;;28.63;14.27;;;3.80;84.80;;;4.21;70.90;95852.19;5061668;28;20048;-49
2020/12/06 00:32:38;;;;;;;36.67;19.13;;;3.80;84.70;;;4.22;71.58;95850.38;5061469;28;20363;-47
2020/12/06 00:35:10;;;;;;;29.03;15.40;;;3.80;84.60;;;4.22;70.92;95845.91;5061296;28;20045;-48
2020/12/06 00:37:39;;;;;;;31.90;16.20;;;3.80;84.50;;;4.19;71.14;95840.16;5061580;28;20056;-47
2020/12/06 00:40:08;;;;;;;30.83;17.73;;;3.70;84.70;;;4.12;71.01;95838.19;5061486;28;20041;-45
2020/12/06 00:42:36;;;;;;;33.87;17.53;;;3.70;85.30;;;4.08;71.16;95823.69;5061534;28;20233;-46
2020/12/06 00:45:05;;;;;;;30.50;17.80;;;3.60;85.40;;;4.05;71.17;95828.47;5060947;28;20053;-49
2020/12/06 00:47:37;;;;;;;36.63;19.57;;;3.60;85.70;;;4.05;70.75;95829.31;5061665;28;20244;-50
2020/12/06 00:50:07;;;;;;;41.63;20.70;;;3.60;85.90;;;4.04;70.92;95818.94;5061719;28;20045;-47
2020/12/06 00:52:38;;;;;;;29.67;17.13;;;3.60;85.80;;;4.05;70.94;95807.41;5061338;28;20049;-45
2020/12/06 00:55:07;;;;;;;33.53;16.30;;;3.60;85.60;;;4.08;70.91;95800.00;5076111;28;20248;-47
2020/12/06 00:57:34;;;;;;;34.33;17.03;;;3.60;85.80;;;4.07;71.17;95779.09;5061240;28;20045;-46
2020/12/06 01:00:07;;;;;;;41.20;18.20;;;3.60;85.80;;;4.06;70.92;95757.22;5061390;28;20060;-45
2020/12/06 01:02:34;;;;;;;51.67;18.60;;;3.60;85.80;;;4.04;71.02;95768.91;5060510;28;20049;-48
2020/12/06 01:05:04;;;;;;;59.60;20.17;;;3.60;85.90;;;4.03;71.67;95765.47;5060909;28;20429;-49
2020/12/06 01:07:39;;;;;;;55.13;19.33;;;3.60;86.20;;;4.00;71.07;95767.59;5060984;28;20445;-46
2020/12/06 01:10:09;;;;;;;35.57;17.60;;;3.50;86.30;;;4.00;70.89;95783.41;5061101;28;20053;-45
2020/12/06 01:12:39;;;;;;;31.63;17.10;;;3.50;86.30;;;3.96;71.31;95777.63;5064970;28;20055;-47
2020/12/06 01:15:10;;;;;;;30.97;16.07;;;3.50;86.40;;;3.95;71.57;95768.06;5064562;28;20063;-46
2020/12/06 01:17:38;;;;;;;53.10;19.10;;;3.60;86.20;;;3.97;70.78;95747.66;5064700;28;20079;-48
2020/12/06 01:20:07;;;;;;;81.13;19.53;;;3.60;85.90;;;3.99;71.28;95766.75;5064731;28;20053;-47
2020/12/06 01:22:35;;;;;;;143.47;24.03;;;3.60;85.80;;;3.94;71.01;95776.97;5064673;28;20051;-49
2020/12/06 01:25:04;;;;;;;71.90;20.57;;;3.50;85.90;;;3.91;71.10;95779.94;5064415;28;20087;-50
2020/12/06 01:27:32;;;;;;;104.27;23.40;;;3.50;86.30;;;3.87;70.86;95795.22;5064678;28;20194;-49
2020/12/06 01:30:00;;;;;;;39.63;17.87;;;3.40;86.40;;;3.81;71.25;95810.88;5064596;28;20362;-46
2020/12/06 01:32:32;;;;;;;53.70;19.60;;;3.30;86.70;;;3.83;71.29;95825.50;5064141;28;20053;-48
2020/12/06 01:35:03;;;;;;;74.53;18.70;;;3.40;86.70;;;3.86;71.32;95830.44;5064163;28;20059;-48
2020/12/06 01:37:31;;;;;;;58.27;19.60;;;3.40;86.40;;;3.88;71.15;95839.00;5064535;28;20249;-46
2020/12/06 01:39:59;;;;;;;96.27;22.33;;;3.40;86.30;;;3.87;71.56;95834.72;5064299;28;20055;-45
2020/12/06 01:42:26;;;;;;;87.80;21.53;;;3.40;86.10;;;3.85;71.20;95831.44;5064379;28;20044;-49
2020/12/06 01:45:00;;;;;;;68.80;21.10;;;3.40;86.40;;;3.83;71.18;95840.47;5064069;28;20051;-47
2020/12/06 01:47:28;;;;;;;;;;;3.30;86.70;;;3.79;70.86;95839.16;5064388;28;20059;-46
2020/12/06 01:49:57;;;;;;;78.77;19.93;;;3.30;87.30;;;3.72;71.42;95831.09;5063232;28;20182;-45
2020/12/06 01:52:29;;;;;;;53.43;18.17;;;3.10;87.90;;;3.75;71.50;95828.13;5063412;28;20045;-46
2020/12/06 01:54:57;;;;;;;120.70;23.07;;;3.20;87.60;;;3.74;71.25;95818.56;5064232;28;20059;-48
2020/12/06 01:57:25;;;;;;;94.73;26.93;;;3.20;87.40;;;3.74;71.50;95829.94;5064859;28;20059;-46
2020/12/06 01:59:52;;;;;;;115.13;24.47;;;3.20;87.20;;;3.74;71.70;95831.75;5064052;28;20051;-47
2020/12/06 02:02:20;;;;;;;58.53;20.60;;;3.20;87.10;;;3.75;71.43;95823.69;5063701;28;20057;-47
2020/12/06 02:04:47;;;;;;;128.40;26.43;;;3.30;87.20;;;3.75;71.49;95820.25;5063625;28;20049;-47
2020/12/06 02:07:14;;;;;;;140.73;26.30;;;3.30;87.00;;;3.74;71.23;95814.16;5064056;28;20037;-47
2020/12/06 02:09:44;;;;;;;131.07;28.17;;;3.30;87.20;;;3.68;71.73;95811.34;5063841;28;20049;-46
2020/12/06 02:12:11;;;;;;;160.90;28.80;;;3.20;87.60;;;3.66;72.00;95808.06;5063992;28;20045;-51
2020/12/06 02:14:39;;;;;;;106.40;25.70;;;3.20;87.50;;;3.70;71.65;95798.84;5063085;28;20059;-48
2020/12/06 02:17:06;;;;;;;148.17;30.17;;;3.20;87.30;;;3.73;71.48;95798.53;5063410;28;20048;-48
2020/12/06 02:19:33;;;;;;;124.50;27.80;;;3.30;87.20;;;3.71;71.77;95800.50;5063745;28;20052;-48
2020/12/06 02:22:01;;;;;;;196.50;35.83;;;3.20;87.30;;;3.70;71.76;95798.84;5063458;28;20055;-51
2020/12/06 02:24:29;;;;;;;174.33;32.07;;;3.20;87.40;;;3.68;71.74;95801.66;5063575;28;20041;-49
2020/12/06 02:26:56;;;;;;;154.73;29.20;;;3.20;87.70;;;3.66;71.25;95808.06;5063244;28;20052;-48
2020/12/06 02:29:23;;;;;;;153.83;28.90;;;3.10;87.80;;;3.67;71.77;95810.53;5063538;28;20053;-49
2020/12/06 02:31:51;;;;;;;103.10;25.17;;;3.20;88.30;;;3.67;71.70;95807.91;5063362;28;20240;-50
2020/12/06 02:34:18;;;;;;;112.03;25.57;;;3.20;87.70;;;3.69;71.76;95802.47;5063695;28;20075;-49
2020/12/06 02:36:45;;;;;;;101.30;26.10;;;3.20;87.50;;;3.65;71.97;95801.16;5063082;28;20048;-49
2020/12/06 02:39:13;;;;;;;84.13;22.47;;;3.10;87.60;;;3.58;72.14;95794.88;5063351;28;20053;-47
2020/12/06 02:41:45;;;;;;;68.43;23.03;;;3.10;88.10;;;3.61;71.80;95784.06;5062808;28;20049;-47
2020/12/06 02:44:14;;;;;;;71.03;23.30;;;3.20;88.20;;;3.60;72.03;95775.31;5063398;28;20267;-49
2020/12/06 02:46:42;;;;;;;91.73;24.53;;;3.10;88.00;;;3.60;72.15;95780.56;5061351;28;20074;-46
2020/12/06 02:49:09;;;;;;;89.03;25.40;;;3.10;87.80;;;3.56;72.14;95787.16;5061793;28;20349;-47
2020/12/06 02:51:37;;;;;;;60.27;22.53;;;3.10;88.30;;;3.53;72.08;95766.44;5063155;28;20053;-47
2020/12/06 02:54:05;;;;;;;96.47;25.73;;;3.00;88.50;;;3.46;72.46;95739.13;5063107;28;20049;-48
2020/12/06 02:56:33;;;;;;;114.83;27.03;;;3.00;89.10;;;3.42;72.51;95733.38;5062213;28;20067;-48
2020/12/06 02:59:00;;;;;;;128.97;30.50;;;2.90;89.20;;;3.44;72.22;95751.63;5063089;28;20048;-46
2020/12/06 03:01:32;;;;;;;212.77;35.23;;;2.90;89.10;;;3.35;73.03;95756.88;5063183;28;20049;-48
2020/12/06 03:04:00;;;;;;;113.73;29.60;;;2.90;89.90;;;3.37;72.77;95764.59;5061939;28;20041;-48
2020/12/06 03:06:28;;;;;;;127.10;28.77;;;2.90;89.30;;;3.40;72.27;95756.38;5062456;28;20040;-47
2020/12/06 03:08:55;;;;;;;95.67;25.73;;;2.90;89.50;;;3.44;72.77;95749.81;5062791;28;20055;-48
2020/12/06 03:11:27;;;;;;;132.63;29.77;;;3.00;89.30;;;3.33;73.16;95766.75;5062860;28;20249;-48
2020/12/06 03:13:54;;;;;;;154.20;32.27;;;2.90;89.80;;;3.29;72.92;95762.78;5062321;28;20057;-48
2020/12/06 03:16:22;;;;;;;124.00;29.73;;;2.90;90.00;;;3.36;73.00;95749.81;5062613;28;20059;-48
2020/12/06 03:18:50;;;;;;;199.33;37.60;;;3.00;89.60;;;3.34;73.06;95757.06;5062447;28;20116;-50
2020/12/06 03:21:17;;;;;;;196.00;35.43;;;2.90;89.80;;;3.38;73.25;95771.53;5062221;28;20049;-50
2020/12/06 03:23:45;;;;;;;193.97;37.80;;;2.90;89.60;;;3.38;72.95;95779.41;5062562;28;20045;-52
2020/12/06 03:26:12;;;;;;;199.77;36.53;;;2.90;89.80;;;3.36;73.10;95776.13;5061959;28;20049;-49
2020/12/06 03:28:39;;;;;;;141.90;31.03;;;2.90;89.90;;;3.30;73.21;95774.97;5062362;28;20258;-48
2020/12/06 03:31:07;;;;;;;73.03;24.40;;;2.90;90.00;;;3.35;72.81;95780.56;5062009;28;20055;-47
2020/12/06 03:33:36;;;;;;;56.87;22.10;;;3.00;89.90;;;3.41;73.17;95789.59;5061797;28;20049;-49
2020/12/06 03:36:04;;;;;;;60.87;22.60;;;3.00;89.30;;;3.25;73.76;95787.75;5061961;28;20053;-47
2020/12/06 03:38:32;;;;;;;56.50;20.53;;;2.90;90.00;;;3.30;73.54;95784.66;5062427;28;20356;-47
2020/12/06 03:40:59;;;;;;;50.20;22.40;;;2.90;89.70;;;3.34;73.31;95778.09;5062245;28;20167;-48
2020/12/06 03:43:27;;;;;;;59.00;21.30;;;2.90;89.60;;;3.36;73.44;95781.38;5062239;28;20051;-47
2020/12/06 03:45:54;;;;;;;50.13;21.90;;;3.00;89.60;;;3.35;73.51;95791.09;5061813;28;20049;-47
2020/12/06 03:48:21;;;;;;;44.47;19.73;;;2.90;89.50;;;3.32;73.34;95786.13;5062236;28;20049;-47
2020/12/06 03:50:49;;;;;;;42.63;17.67;;;2.90;89.10;;;3.35;72.97;95787.63;5062200;28;20056;-48
2020/12/06 03:53:16;;;;;;;38.73;17.93;;;2.90;88.90;;;3.37;72.93;95790.91;5061880;28;20072;-47
2020/12/06 03:55:43;;;;;;;47.60;18.13;;;3.00;88.40;;;3.41;73.07;95780.88;5061242;28;20056;-48
2020/12/06 03:58:10;;;;;;;39.40;16.60;;;3.00;88.50;;;3.25;72.85;95766.72;5062154;28;20063;-52
2020/12/06 04:00:38;;;;;;;53.40;19.20;;;2.90;89.00;;;3.27;73.33;95758.66;5061570;28;20045;-47
2020/12/06 04:03:05;;;;;;;42.63;17.60;;;2.90;89.40;;;3.29;72.90;95770.66;5061502;28;20271;-47
2020/12/06 04:05:33;;;;;;;47.57;19.17;;;2.80;89.20;;;3.29;73.13;95786.44;5061758;28;20053;-49
2020/12/06 04:08:00;;;;;;;42.17;18.93;;;2.90;89.00;;;3.33;73.18;95782.53;5060928;28;20040;-48
2020/12/06 04:10:27;;;;;;;38.93;18.40;;;2.90;89.10;;;3.35;72.99;95779.72;5062023;28;20279;-48
2020/12/06 04:12:54;;;;;;;41.43;18.67;;;2.90;88.80;;;3.31;73.16;95775.78;5061110;28;20071;-46
2020/12/06 04:15:22;;;;;;;40.30;18.73;;;2.90;88.60;;;3.25;73.49;95768.53;5061797;28;20056;-46
2020/12/06 04:17:49;;;;;;;46.50;20.97;;;2.90;88.90;;;3.21;72.97;95764.59;5061861;28;20045;-48
2020/12/06 04:20:16;;;;;;;43.53;18.50;;;2.80;89.00;;;3.25;73.20;95763.28;5061856;28;20051;-52
2020/12/06 04:22:44;;;;;;;46.57;20.90;;;2.80;89.00;;;3.29;73.10;95767.22;5061968;28;20055;-51
2020/12/06 04:25:11;;;;;;;38.00;19.50;;;2.90;88.80;;;3.24;73.52;95766.88;5061326;28;20241;-52
2020/12/06 04:27:38;;;;;;;51.87;20.63;;;2.80;88.40;;;3.29;73.17;95770.66;5062184;28;20075;-48
2020/12/06 04:30:05;;;;;;;39.63;18.90;;;2.80;88.50;;;3.26;72.75;95762.31;5061312;28;20048;-50
2020/12/06 04:32:33;;;;;;;41.30;18.97;;;2.80;88.70;;;3.26;73.01;95741.25;5061679;28;20053;-47
2020/12/06 04:35:00;;;;;;;40.87;18.10;;;2.80;88.70;;;3.27;73.08;95748.16;5060747;28;20065;-46
2020/12/06 04:37:28;;;;;;;41.50;18.33;;;2.80;88.70;;;3.29;72.76;95759.34;5061618;28;20052;-47
2020/12/06 04:39:55;;;;;;;44.93;20.00;;;2.80;88.40;;;3.33;72.99;95776.44;5061623;28;20052;-46
2020/12/06 04:42:24;;;;;;;37.30;17.27;;;2.90;88.40;;;3.35;72.85;95783.19;5059976;28;20059;-49
2020/12/06 04:44:53;;;;;;;41.83;18.53;;;3.00;87.90;;;3.37;73.02;95777.75;5061225;28;20364;-48
2020/12/06 04:47:44;;;;;;;38.70;18.13;;;2.90;88.10;;;3.35;72.97;95787.63;5065504;28;20245;-46
2020/12/06 04:50:24;;;;;;;34.70;17.53;;;2.90;88.30;;;3.26;72.87;95792.03;5065566;28;20052;-48
2020/12/06 04:52:58;;;;;;;32.53;16.13;;;2.80;88.60;;;3.18;73.17;95786.78;5063011;28;20053;-46
2020/12/06 04:55:34;;;;;;;38.97;18.43;;;2.80;89.20;;;3.19;73.04;95790.22;5064935;28;20046;-47
2020/12/06 04:58:04;;;;;;;36.47;16.80;;;2.70;89.00;;;3.18;73.30;95783.31;5065286;28;20059;-47
2020/12/06 05:00:35;;;;;;;34.73;16.53;;;2.80;89.00;;;3.10;73.99;95779.69;5064464;28;20059;-49
2020/12/06 05:03:10;;;;;;;35.67;16.47;;;2.70;89.40;;;3.16;73.32;95770.34;5065295;28;20051;-49
2020/12/06 05:05:40;;;;;;;31.40;16.20;;;2.70;89.60;;;3.19;73.46;95777.88;5064590;28;20055;-50
2020/12/06 05:08:12;;;;;;;31.87;16.57;;;2.80;89.00;;;3.26;73.12;95783.34;5065181;28;20051;-48
2020/12/06 05:10:46;;;;;;;31.93;15.07;;;2.90;89.10;;;3.12;73.65;95772.47;5064976;28;20236;-48
2020/12/06 05:13:15;;;;;;;35.30;16.17;;;2.80;89.00;;;3.18;73.34;95786.78;5065090;28;20221;-47
2020/12/06 05:15:44;;;;;;;33.30;15.93;;;2.80;89.10;;;3.26;73.37;95788.59;5064183;28;20051;-47
2020/12/06 05:18:12;;;;;;;42.53;17.30;;;2.90;88.90;;;3.25;73.37;95779.88;5064846;28;20055;-48
2020/12/06 05:20:39;;;;;;;39.93;18.17;;;2.90;88.80;;;3.24;73.39;95777.41;5064912;28;20055;-46
2020/12/06 05:23:07;;;;;;;57.37;19.03;;;2.80;88.90;;;3.28;73.04;95768.22;5065159;28;20051;-50
2020/12/06 05:25:34;;;;;;;67.63;22.17;;;2.80;89.30;;;3.27;73.14;95759.50;5064441;28;20240;-49
2020/12/06 05:28:02;;;;;;;53.17;18.40;;;2.80;89.10;;;3.30;73.07;95769.69;5063318;28;20344;-47
2020/12/06 05:30:29;;;;;;;87.60;21.23;;;2.80;89.10;;;3.26;73.34;95771.00;5078245;22;20040;-43
2020/12/06 05:32:59;;;;;;;52.47;18.93;;;2.80;89.50;;;3.19;73.30;95756.84;5059274;28;20206;-48
2020/12/06 05:35:28;;;;;;;123.93;26.60;;;2.80;89.90;;;3.15;73.82;95756.34;5061897;28;20059;-43
2020/12/06 05:37:56;;;;;;;117.57;27.60;;;2.70;90.20;;;3.22;73.52;95758.31;5064561;28;20049;-48
2020/12/06 05:40:23;;;;;;;83.97;27.30;;;2.80;90.10;;;3.19;73.64;95762.09;5064922;28;20068;-45
2020/12/06 05:42:50;;;;;;;86.93;23.87;;;2.80;89.90;;;3.26;73.55;95778.91;5064429;28;20067;-45
2020/12/06 05:45:19;;;;;;;136.90;27.23;;;2.90;89.70;;;3.28;73.49;95791.91;5064023;28;20067;-47
2020/12/06 05:47:47;;;;;;;79.47;21.80;;;2.90;89.60;;;3.27;73.40;95788.41;5064650;28;20053;-46
2020/12/06 05:50:14;;;;;;;106.77;26.30;;;2.80;89.60;;;3.28;73.45;95776.94;5064395;28;20049;-46
2020/12/06 05:52:41;;;;;;;118.83;27.90;;;2.80;89.70;;;3.23;73.97;95763.44;5064401;28;20352;-46
2020/12/06 05:55:09;;;;;;;163.27;29.80;;;2.80;90.30;;;3.22;73.61;95755.69;5063833;28;20048;-46
2020/12/06 05:57:45;;;;;;;78.77;22.00;;;2.80;90.30;;;3.18;73.37;95757.00;5063762;28;20060;-46
2020/12/06 06:00:13;;;;;;;164.00;27.83;;;2.80;90.40;;;3.24;73.91;95767.72;5064148;28;20053;-44
2020/12/06 06:02:44;;;;;;;207.30;31.73;;;2.80;90.20;;;3.30;73.50;95774.97;5060398;28;20051;-46
2020/12/06 06:05:20;;;;;;;106.63;24.63;;;2.90;89.90;;;3.35;73.33;95777.94;5063714;28;20047;-45
2020/12/06 06:07:50;;;;;;;91.43;21.97;;;3.00;89.50;;;3.39;73.28;95777.59;5063051;28;20052;-46
2020/12/06 06:10:19;;;;;;;145.33;25.77;;;3.00;89.20;;;3.35;73.64;95783.19;5063967;28;20045;-43
2020/12/06 06:12:56;;;;;;;137.43;25.37;;;3.00;89.60;;;3.21;74.15;95783.00;5062449;28;20059;-43
2020/12/06 06:15:25;;;;;;;156.03;26.37;;;2.80;90.60;;;3.14;74.03;95780.16;5062380;28;20053;-45
2020/12/06 06:17:54;;;;;;;106.23;23.17;;;2.70;91.40;;;3.15;73.72;95769.50;5063916;28;20348;-44
2020/12/06 06:20:22;;;;;;;148.90;27.10;;;2.70;91.20;;;3.18;73.91;95772.78;5062697;28;20055;-45
2020/12/06 06:22:50;;;;;;;134.07;25.20;;;2.70;91.00;;;3.19;74.36;95782.34;5063747;28;20041;-44
2020/12/06 06:25:18;;;;;;;155.87;26.67;;;2.70;90.90;;;3.21;74.09;95785.63;5061804;28;20049;-50
2020/12/06 06:27:45;;;;;;;227.03;31.90;;;2.80;90.70;;;3.13;74.32;95781.97;5062158;28;20390;-46
2020/12/06 06:30:13;;;;;;;137.40;25.17;;;2.70;91.00;;;3.09;74.20;95779.84;5063748;28;20044;-44
2020/12/06 06:32:40;;;;;;;203.47;31.03;;;2.70;91.40;;;3.04;74.44;95777.66;5063467;28;20051;-44
2020/12/06 06:35:09;;;;;;;130.30;25.93;;;2.70;91.50;;;3.06;74.82;95770.44;5063122;28;20055;-44
2020/12/06 06:37:38;;;;;;;180.37;29.87;;;2.70;91.70;;;3.11;74.44;95770.81;5063574;28;20055;-45
2020/12/06 06:40:08;;;;;;;104.93;24.17;;;2.70;91.60;;;3.17;74.47;95786.94;5062937;28;20061;-46
2020/12/06 06:42:37;;;;;;;147.60;34.90;;;2.80;91.20;;;3.22;74.21;95808.28;5063576;28;20071;-46
2020/12/06 06:45:10;;;;;;;83.00;26.77;;;2.90;91.10;;;3.29;74.37;95830.34;5062971;28;20049;-44
2020/12/06 06:47:40;;;;;;;95.28;21.35;;;2.90;90.90;;;3.37;74.26;95846.13;5063185;28;20052;-45
2020/12/06 06:50:11;;;;;;;75.93;20.87;;;3.00;90.20;;;3.42;73.82;95849.13;5063209;28;20045;-44
2020/12/06 06:52:42;;;;;;;104.73;19.07;;;3.10;90.10;;;3.47;74.03;95849.47;5063143;28;20352;-45
2020/12/06 06:55:10;;;;;;;126.30;23.43;;;3.20;89.80;;;3.48;74.25;95850.28;5063092;28;20063;-44
2020/12/06 06:57:40;;;;;;;147.03;25.83;;;3.20;89.60;;;3.45;73.78;95847.97;5063133;28;20051;-46
2020/12/06 07:00:08;;;;;;;109.73;21.70;;;3.10;89.80;;;3.45;74.04;95846.19;5063006;28;20057;-44
2020/12/06 07:02:41;;;;;;;95.97;20.63;;;3.00;90.00;;;3.44;74.03;95836.63;5060926;28;20071;-46
2020/12/06 07:05:14;;;;;;;88.60;19.07;;;3.10;90.10;;;3.37;74.21;95842.69;5062280;28;20057;-44
2020/12/06 07:07:53;;;;;;;93.40;18.87;;;3.00;90.30;;;3.33;74.15;95856.19;5062533;28;20244;-44
2020/12/06 07:10:23;;;;;;;134.40;25.40;;;2.90;90.80;;;3.30;74.25;95851.22;5063021;28;20051;-46
2020/12/06 07:12:53;;;;;;;94.80;20.63;;;2.90;90.60;;;3.32;74.03;95858.97;5062751;28;20053;-47
2020/12/06 07:15:24;;;;;;;74.90;19.27;;;2.90;90.60;;;3.29;74.18;95856.66;5062310;28;20059;-44
2020/12/06 07:17:53;;;;;;;66.73;18.63;;;2.90;90.80;;;3.26;74.24;95852.53;5062319;28;20359;-46
2020/12/06 07:20:23;;;;;;;70.77;18.87;;;2.80;91.00;;;3.30;74.51;95847.78;5062667;28;20055;-45
2020/12/06 07:22:52;;;;;;;86.73;19.30;;;2.90;90.90;;;3.28;74.35;95847.13;5061456;28;20043;-48
2020/12/06 07:25:21;;;;;;;64.63;17.43;;;2.90;90.90;;;3.30;74.16;95840.72;5062201;28;20044;-46
2020/12/06 07:27:49;;;;;;;74.90;18.77;;;2.90;90.90;;;3.25;74.52;95847.44;5063076;28;20332;-45
2020/12/06 07:30:19;;;;;;;75.07;17.97;;;2.90;90.90;;;3.29;74.30;95843.50;5061467;28;20095;-47
2020/12/06 07:32:47;;;;;;;86.07;17.10;;;2.90;91.10;;;3.24;74.26;95843.13;5061293;28;20071;-46
2020/12/06 07:35:15;;;;;;;115.27;20.70;;;2.90;91.10;;;3.23;74.42;95833.63;5062474;28;20064;-44
2020/12/06 07:37:45;;;;;;;73.87;19.20;;;2.90;91.10;;;3.22;74.39;95819.66;5062274;28;20048;-45
2020/12/06 07:40:13;;;;;;;78.27;18.83;;;2.80;91.10;;;3.25;74.32;95818.50;5062303;28;20051;-45
2020/12/06 07:42:40;;;;;;;58.87;16.87;;;2.90;91.20;;;3.28;74.59;95824.28;5061931;28;20053;-43
2020/12/06 07:45:08;;;;;;;106.33;23.90;;;2.90;90.90;;;3.32;74.37;95836.13;5062165;28;20041;-48
2020/12/06 07:47:36;;;;;;;55.10;16.23;;;3.00;90.80;;;3.39;74.36;95825.75;5061057;28;20075;-47
2020/12/06 07:50:06;;;;;;;53.40;14.93;;;3.10;90.90;;;3.47;74.25;95822.31;5062563;28;20049;-45
2020/12/06 07:52:40;;;;;;;43.50;15.67;;;3.10;90.40;;;3.50;74.25;95825.47;5058578;28;20126;-45
2020/12/06 07:55:10;;;;;;;80.40;17.23;;;3.20;90.10;;;3.54;74.14;95828.59;5060934;28;20047;-46
2020/12/06 07:57:40;;;;;;;52.83;13.53;;;3.20;89.60;;;3.58;74.17;95823.84;5043657;28;20082;-44
2020/12/06 08:00:12;;;;;;;65.30;17.37;;;3.30;89.80;;;3.51;74.08;95826.31;5061262;28;20249;-45
2020/12/06 08:02:54;;;;;;;52.27;15.53;;;3.10;90.10;;;3.53;74.02;95830.41;5060240;28;20067;-43
2020/12/06 08:05:24;;;;;;;53.37;17.03;;;3.10;90.30;;;3.55;74.09;95844.22;5059281;28;20045;-46
2020/12/06 08:08:13;;;;;;;44.60;14.13;;;3.20;90.30;;;3.59;74.02;95855.25;5061122;28;20045;-45
2020/12/06 08:10:49;;;;;;;63.90;15.70;;;3.20;89.90;;;3.62;73.62;95854.09;5060304;28;20048;-44
2020/12/06 08:13:16;;;;;;;57.70;15.33;;;3.30;89.80;;;3.66;74.28;95858.88;5061007;28;20053;-46
2020/12/06 08:15:46;;;;;;;42.50;13.70;;;3.30;89.80;;;3.70;73.85;95857.59;5059537;28;20053;-46
2020/12/06 08:18:17;;;;;;;72.37;14.53;;;3.40;89.70;;;3.74;74.01;95858.91;5060299;28;20091;-45
2020/12/06 08:20:55;;;;;;;54.30;16.40;;;3.40;89.40;;;3.77;74.16;95864.84;5065936;28;20053;-45
2020/12/06 08:23:36;;;;;;;43.03;15.43;;;3.50;89.80;;;3.80;73.92;95853.97;5067006;28;20048;-44
2020/12/06 08:26:04;;;;;;;52.30;14.63;;;3.50;89.60;;;3.83;74.04;95857.09;5067370;28;20051;-46
2020/12/06 08:28:32;;;;;;;45.30;13.03;;;3.50;89.30;;;3.84;74.23;95855.28;5067630;28;20045;-45
2020/12/06 08:30:59;;;;;;;42.93;13.77;;;3.60;89.30;;;3.87;74.08;95837.34;5065990;28;20045;-44
2020/12/06 08:33:28;;;;;;;46.63;12.97;;;3.60;89.20;;;3.89;73.95;95859.06;5067604;28;20084;-45
2020/12/06 08:35:56;;;;;;;38.37;13.67;;;3.60;89.10;;;3.91;73.98;95864.19;5065381;28;20055;-44
2020/12/06 08:38:34;;;;;;;51.57;16.53;;;3.60;88.90;;;3.93;73.36;95859.56;5058707;28;20059;-44
2020/12/06 08:41:12;;;;;;;39.13;14.50;;;3.60;88.80;;;3.94;73.80;95859.41;5054132;28;20116;-45
2020/12/06 08:43:55;;;;;;;72.03;14.70;;;3.60;88.90;;;3.96;73.83;95846.09;5058934;28;20047;-43
2020/12/06 08:46:26;;;;;;;36.10;12.90;;;3.70;88.90;;;3.99;73.67;95850.19;5057189;28;20041;-45
2020/12/06 08:49:00;;;;;;;34.13;13.13;;;3.60;88.80;;;3.98;73.78;95841.47;5067454;28;20067;-46
2020/12/06 08:51:36;;;;;;;39.83;14.45;;;3.60;88.50;;;4.00;74.04;95833.44;5066477;28;20045;-45
2020/12/06 08:54:07;;;;;;;37.13;12.80;;;3.70;88.90;;;3.96;73.58;95821.59;5066730;28;20364;-44
2020/12/06 08:56:43;;;;;;;43.67;15.23;;;3.60;88.40;;;3.89;73.48;95811.69;5067352;28;20256;-47
2020/12/06 08:59:14;;;;;;;43.93;16.30;;;3.40;89.20;;;3.88;73.70;95823.22;5068089;28;20164;-43
2020/12/06 09:01:53;;;;;;;38.70;13.73;;;3.40;89.50;;;3.88;73.68;95835.56;5066823;28;20051;-46
2020/12/06 09:04:22;;;;;;;36.20;12.90;;;3.50;89.50;;;3.92;73.64;95839.50;5067814;28;20049;-47
2020/12/06 09:06:52;;;;;;;39.63;14.30;;;3.60;89.30;;;3.92;73.93;95823.72;5067513;28;20048;-46
2020/12/06 09:09:20;;;;;;;31.60;12.50;;;3.60;88.50;;;3.91;73.66;95827.31;5066683;28;20060;-45
2020/12/06 09:11:52;;;;;;;38.77;14.73;;;3.50;88.80;;;3.86;73.62;95834.91;5067865;28;20053;-44
2020/12/06 09:14:20;;;;;;;28.03;14.13;;;3.50;88.80;;;3.89;73.99;95827.47;5067099;28;20197;-44
2020/12/06 09:16:48;;;;;;;33.23;13.00;;;3.50;89.40;;;3.84;73.63;95824.53;5067315;28;20348;-44
2020/12/06 09:19:15;;;;;;;36.23;12.80;;;3.40;89.30;;;3.75;74.00;95821.06;5068148;28;20045;-44
2020/12/06 09:21:43;;;;;;;30.80;13.30;;;3.30;89.70;;;3.67;74.20;95822.88;5067905;28;20544;-45
2020/12/06 09:24:10;;;;;;;36.63;14.00;;;3.30;90.20;;;3.71;73.79;95824.19;5066794;28;20051;-46
2020/12/06 09:26:38;;;;;;;37.23;13.30;;;3.30;90.10;;;3.74;74.00;95832.59;5067404;28;20358;-45
2020/12/06 09:29:05;;;;;;;39.60;16.03;;;3.40;90.00;;;3.71;74.53;95837.34;5067787;28;20055;-43
2020/12/06 09:31:33;;;;;;;30.80;12.77;;;3.40;89.90;;;3.72;74.05;95855.63;5065038;28;20230;-44
2020/12/06 09:34:00;;;;;;;46.40;16.13;;;3.30;90.00;;;3.70;74.14;95851.47;5063944;28;20059;-42
2020/12/06 09:36:29;;;;;;;45.70;14.47;;;3.30;90.10;;;3.70;74.32;95835.69;5063588;28;20049;-46
2020/12/06 09:38:56;;;;;;;35.53;15.20;;;3.30;90.20;;;3.63;74.53;95843.41;5062436;28;20063;-45
2020/12/06 09:41:24;;;;;;;36.10;14.10;;;3.30;90.80;;;3.67;74.44;95849.19;5064485;28;20366;-43
2020/12/06 09:43:51;;;;;;;37.37;14.90;;;3.30;90.80;;;3.65;74.75;95849.34;5062819;28;20345;-46
2020/12/06 09:46:18;;;;;;;27.43;13.03;;;3.30;90.90;;;3.61;74.92;95847.22;5063982;28;20047;-44
2020/12/06 09:48:45;;;;;;;30.90;14.17;;;3.30;91.10;;;3.66;74.34;95850.97;5064592;28;20048;-46
2020/12/06 09:51:13;;;;;;;40.70;14.90;;;3.30;91.00;;;3.55;75.29;95846.84;5064189;28;20047;-44
2020/12/06 09:53:40;;;;;;;29.63;13.37;;;3.30;91.30;;;3.53;74.92;95853.28;5064084;28;20063;-45
2020/12/06 09:56:09;;;;;;;32.20;13.83;;;3.20;91.80;;;3.55;74.76;95864.47;5063606;28;20355;-44
2020/12/06 09:58:36;;;;;;;40.10;15.03;;;3.20;91.40;;;3.62;74.65;95870.72;5063606;28;20131;-48
2020/12/06 10:01:03;;;;;;;27.77;13.17;;;3.40;91.30;;;3.67;74.81;95875.50;5059276;28;20079;-43
2020/12/06 10:03:30;;;;;;;26.33;11.63;;;3.40;90.70;;;3.74;74.71;95873.84;5047975;28;20084;-45
2020/12/06 10:05:58;;;;;;;29.40;13.33;;;3.50;90.60;;;3.77;74.61;95878.81;5043284;28;20050;-46
2020/12/06 10:08:27;;;;;;;24.60;13.10;;;3.50;90.60;;;3.83;74.68;95882.59;5044139;28;20053;-44
2020/12/06 10:10:54;;;;;;;29.93;12.87;;;3.60;90.20;;;3.72;74.92;95858.25;5042567;28;20056;-43
2020/12/06 10:13:22;;;;;;;25.87;12.53;;;3.50;90.30;;;3.69;74.63;95850.66;5042510;28;20059;-46
2020/12/06 10:15:49;;;;;;;32.87;13.30;;;3.40;90.90;;;3.78;74.83;95855.94;5043668;28;20056;-43
2020/12/06 10:18:17;;;;;;;25.77;13.03;;;3.50;91.10;;;3.79;74.49;95839.16;5043880;28;20071;-43
2020/12/06 10:20:44;;;;;;;25.73;12.03;;;3.50;90.80;;;3.80;74.30;95825.84;5044459;28;20278;-45
2020/12/06 10:23:11;;;;;;;25.17;11.40;;;3.50;90.40;;;3.79;75.00;95832.09;5042496;28;20045;-45
2020/12/06 10:25:39;;;;;;;26.03;10.77;;;3.50;90.60;;;3.80;74.91;95833.75;5043424;28;20051;-46